sensor_id;sensor_type;location;lat;lon;timestamp;pressure;altitude;pressure_sealevel;temperature;humidity
19447;BME280;9862;49.462;11.054;2023-04-26T04:36:42;98096.91;;;8.38;100.00
19447;BME280;9862;49.462;11.054;2023-04-26T04:39:08;98095.78;;;8.25;100.00
19447;BME280;9862;49.462;11.054;2023-04-26T04:41:40;98101.28;;;8.24;100.00
19447;BME280;9862;49.462;11.054;2023-04-26T04:44:12;98111.78;;;8.11;100.00
19447;BME280;9862;49.462;11.054;2023-04-26T04:46:40;98102.78;;;7.90;100.00
19447;BME280;9862;49.462;11.054;2023-04-26T04:49:06;98114.38;;;7.83;100.00
19447;BME280;9862;49.462;11.054;2023-04-26T04:51:35;98123.06;;;7.77;100.00
19447;BME280;9862;49.462;11.054;2023-04-26T04:54:10;98116.84;;;7.69;100.00
19447;BME280;9862;49.462;11.054;2023-04-26T04:56:37;98121.97;;;7.71;100.00
19447;BME280;9862;49.462;11.054;2023-04-26T04:59:04;98127.16;;;7.79;100.00
19447;BME280;9862;49.462;11.054;2023-04-26T05:01:31;98118.88;;;7.67;100.00
19447;BME280;9862;49.462;11.054;2023-04-26T05:03:58;98121.34;;;7.69;100.00
19447;BME280;9862;49.462;11.054;2023-04-26T05:06:25;98125.00;;;7.68;100.00
19447;BME280;9862;49.462;11.054;2023-04-26T05:08:52;98123.25;;;7.75;100.00
19447;BME280;9862;49.462;11.054;2023-04-26T05:11:20;98128.06;;;7.71;100.00
19447;BME280;9862;49.462;11.054;2023-04-26T05:13:47;98118.88;;;7.67;100.00
19447;BME280;9862;49.462;11.054;2023-04-26T05:16:14;98127.75;;;7.60;100.00
19447;BME280;9862;49.462;11.054;2023-04-26T05:18:41;98127.31;;;7.56;100.00
19447;BME280;9862;49.462;11.054;2023-04-26T05:21:08;98137.63;;;7.66;100.00
19447;BME280;9862;49.462;11.054;2023-04-26T05:23:35;98138.44;;;7.66;100.00
19447;BME280;9862;49.462;11.054;2023-04-26T05:26:02;98135.22;;;7.71;100.00
19447;BME280;9862;49.462;11.054;2023-04-26T05:28:31;98131.50;;;7.65;100.00
19447;BME280;9862;49.462;11.054;2023-04-26T05:30:59;98137.00;;;7.64;100.00
19447;BME280;9862;49.462;11.054;2023-04-26T05:33:26;98139.88;;;7.69;100.00
19447;BME280;9862;49.462;11.054;2023-04-26T05:35:53;98144.75;;;7.87;100.00
19447;BME280;9862;49.462;11.054;2023-04-26T05:38:22;98143.81;;;7.94;100.00
19447;BME280;9862;49.462;11.054;2023-04-26T05:40:49;98142.63;;;7.97;100.00
19447;BME280;9862;49.462;11.054;2023-04-26T05:43:15;98147.97;;;8.25;100.00
19447;BME280;9862;49.462;11.054;2023-04-26T05:45:50;98143.69;;;8.24;100.00
19447;BME280;9862;49.462;11.054;2023-04-26T05:48:17;98157.34;;;8.42;100.00
19447;BME280;9862;49.462;11.054;2023-04-26T05:50:43;98150.63;;;8.46;100.00
19447;BME280;9862;49.462;11.054;2023-04-26T05:53:10;98164.28;;;8.43;100.00
19447;BME280;9862;49.462;11.054;2023-04-26T05:55:37;98159.59;;;8.45;100.00
19447;BME280;9862;49.462;11.054;2023-04-26T05:58:03;98163.88;;;8.46;100.00
19447;BME280;9862;49.462;11.054;2023-04-26T06:00:30;98168.56;;;8.44;100.00
19447;BME280;9862;49.462;11.054;2023-04-26T06:02:59;98163.13;;;8.31;100.00
19447;BME280;9862;49.462;11.054;2023-04-26T06:05:25;98159.97;;;7.99;100.00
19447;BME280;9862;49.462;11.054;2023-04-26T06:07:52;98162.59;;;7.78;100.00
19447;BME280;9862;49.462;11.054;2023-04-26T06:10:19;98171.56;;;7.77;100.00
19447;BME280;9862;49.462;11.054;2023-04-26T06:12:46;98166.63;;;7.74;100.00
19447;BME280;9862;49.462;11.054;2023-04-26T06:15:12;98178.94;;;7.45;100.00
19447;BME280;9862;49.462;11.054;2023-04-26T06:17:39;98178.94;;;7.45;100.00
19447;BME280;9862;49.462;11.054;2023-04-26T06:20:08;98179.38;;;7.64;100.00
19447;BME280;9862;49.462;11.054;2023-04-26T06:22:35;98177.25;;;7.74;100.00
19447;BME280;9862;49.462;11.054;2023-04-26T06:25:02;98174.09;;;7.85;100.00
19447;BME280;9862;49.462;11.054;2023-04-26T06:27:29;98184.69;;;7.85;100.00
19447;BME280;9862;49.462;11.054;2023-04-26T06:29:56;98181.41;;;7.83;100.00
19447;BME280;9862;49.462;11.054;2023-04-26T06:32:22;98187.53;;;7.84;100.00
19447;BME280;9862;49.462;11.054;2023-04-26T06:34:49;98182.47;;;7.89;100.00
19447;BME280;9862;49.462;11.054;2023-04-26T06:37:17;98179.91;;;7.95;100.00
19447;BME280;9862;49.462;11.054;2023-04-26T06:39:43;98185.94;;;7.89;100.00
19447;BME280;9862;49.462;11.054;2023-04-26T06:42:10;98184.59;;;7.79;100.00
19447;BME280;9862;49.462;11.054;2023-04-26T06:44:37;98182.59;;;7.81;100.00
19447;BME280;9862;49.462;11.054;2023-04-26T06:47:03;98185.13;;;7.89;100.00
19447;BME280;9862;49.462;11.054;2023-04-26T06:49:33;98183.56;;;7.94;100.00
19447;BME280;9862;49.462;11.054;2023-04-26T06:52:00;98182.28;;;7.90;100.00
19447;BME280;9862;49.462;11.054;2023-04-26T06:54:29;98190.13;;;7.62;100.00
19447;BME280;9862;49.462;11.054;2023-04-26T06:56:55;98188.38;;;7.69;100.00
19447;BME280;9862;49.462;11.054;2023-04-26T06:59:22;98187.78;;;7.89;100.00
19447;BME280;9862;49.462;11.054;2023-04-26T07:01:50;98189.50;;;7.96;100.00
19447;BME280;9862;49.462;11.054;2023-04-26T07:04:16;98195.41;;;7.98;100.00
19447;BME280;9862;49.462;11.054;2023-04-26T07:06:45;98186.97;;;8.10;100.00
19447;BME280;9862;49.462;11.054;2023-04-26T07:09:11;98184.59;;;8.15;100.00
19447;BME280;9862;49.462;11.054;2023-04-26T07:11:39;98191.28;;;8.11;100.00
19447;BME280;9862;49.462;11.054;2023-04-26T07:14:06;98190.19;;;8.41;100.00
19447;BME280;9862;49.462;11.054;2023-04-26T07:16:32;98188.44;;;8.33;100.00
19447;BME280;9862;49.462;11.054;2023-04-26T07:18:59;98181.19;;;8.42;100.00
19447;BME280;9862;49.462;11.054;2023-04-26T07:21:26;98178.03;;;8.53;100.00
19447;BME280;9862;49.462;11.054;2023-04-26T07:23:53;98182.56;;;8.59;100.00
19447;BME280;9862;49.462;11.054;2023-04-26T07:26:20;98178.78;;;8.69;100.00
19447;BME280;9862;49.462;11.054;2023-04-26T07:28:49;98188.63;;;8.32;100.00
19447;BME280;9862;49.462;11.054;2023-04-26T07:31:16;98185.22;;;8.38;100.00
19447;BME280;9862;49.462;11.054;2023-04-26T07:33:42;98179.09;;;8.38;100.00
19447;BME280;9862;49.462;11.054;2023-04-26T07:36:09;98184.72;;;8.77;100.00
19447;BME280;9862;49.462;11.054;2023-04-26T07:38:36;98188.06;;;8.86;100.00
19447;BME280;9862;49.462;11.054;2023-04-26T07:41:02;98188.53;;;8.96;100.00
19447;BME280;9862;49.462;11.054;2023-04-26T07:43:30;98176.44;;;9.22;100.00
19447;BME280;9862;49.462;11.054;2023-04-26T07:45:59;98181.59;;;9.30;100.00
19447;BME280;9862;49.462;11.054;2023-04-26T07:48:26;98181.56;;;9.23;100.00
19447;BME280;9862;49.462;11.054;2023-04-26T07:50:53;98182.63;;;9.29;100.00
19447;BME280;9862;49.462;11.054;2023-04-26T07:53:20;98183.53;;;9.49;100.00
19447;BME280;9862;49.462;11.054;2023-04-26T07:55:46;98175.56;;;9.49;96.62
19447;BME280;9862;49.462;11.054;2023-04-26T07:58:13;98185.56;;;9.54;99.42
19447;BME280;9862;49.462;11.054;2023-04-26T08:00:39;98181.28;;;9.46;100.00
19447;BME280;9862;49.462;11.054;2023-04-26T08:03:07;98170.69;;;9.59;100.00
19447;BME280;9862;49.462;11.054;2023-04-26T08:05:34;98177.56;;;9.95;98.77
19447;BME280;9862;49.462;11.054;2023-04-26T08:08:00;98175.56;;;10.17;93.39
19447;BME280;9862;49.462;11.054;2023-04-26T08:10:27;98178.00;;;10.18;92.15
19447;BME280;9862;49.462;11.054;2023-04-26T08:12:54;98176.78;;;10.21;86.77
19447;BME280;9862;49.462;11.054;2023-04-26T08:15:21;98184.19;;;10.32;86.64
19447;BME280;9862;49.462;11.054;2023-04-26T08:17:48;98180.94;;;10.23;88.59
19447;BME280;9862;49.462;11.054;2023-04-26T08:20:18;98181.31;;;10.27;91.61
19447;BME280;9862;49.462;11.054;2023-04-26T08:22:45;98186.84;;;10.39;87.30
19447;BME280;9862;49.462;11.054;2023-04-26T08:25:11;98179.28;;;10.36;86.90
19447;BME280;9862;49.462;11.054;2023-04-26T08:27:38;98186.59;;;10.07;87.03
19447;BME280;9862;49.462;11.054;2023-04-26T08:30:06;98184.91;;;9.99;85.34
19447;BME280;9862;49.462;11.054;2023-04-26T08:32:33;98190.63;;;9.90;82.40
19447;BME280;9862;49.462;11.054;2023-04-26T08:34:59;98186.91;;;9.78;83.10
19447;BME280;9862;49.462;11.054;2023-04-26T08:37:27;98185.00;;;9.58;84.41
19447;BME280;9862;49.462;11.054;2023-04-26T08:39:54;98182.09;;;9.46;86.68
19447;BME280;9862;49.462;11.054;2023-04-26T08:42:24;98188.75;;;9.36;89.26
19447;BME280;9862;49.462;11.054;2023-04-26T08:44:52;98182.16;;;9.18;92.32
19447;BME280;9862;49.462;11.054;2023-04-26T08:47:26;98185.38;;;9.07;93.08
19447;BME280;9862;49.462;11.054;2023-04-26T08:49:57;98185.13;;;9.37;90.60
19447;BME280;9862;49.462;11.054;2023-04-26T08:52:29;98180.31;;;9.60;88.37
19447;BME280;9862;49.462;11.054;2023-04-26T08:54:57;98187.75;;;9.85;84.14
19447;BME280;9862;49.462;11.054;2023-04-26T08:57:24;98180.78;;;9.77;78.34
19447;BME280;9862;49.462;11.054;2023-04-26T08:59:52;98189.13;;;9.67;76.11
19447;BME280;9862;49.462;11.054;2023-04-26T09:02:20;98178.84;;;9.51;80.04
19447;BME280;9862;49.462;11.054;2023-04-26T09:04:49;98181.13;;;9.61;79.89
19447;BME280;9862;49.462;11.054;2023-04-26T09:07:20;98171.78;;;9.78;78.58
19447;BME280;9862;49.462;11.054;2023-04-26T09:09:48;98183.50;;;10.10;76.33
19447;BME280;9862;49.462;11.054;2023-04-26T09:12:17;98172.06;;;10.16;74.05
19447;BME280;9862;49.462;11.054;2023-04-26T09:14:43;98173.84;;;11.35;100.00
19447;BME280;9862;49.462;11.054;2023-04-26T09:17:27;98164.56;;;12.02;98.57
19447;BME280;9862;49.462;11.054;2023-04-26T09:19:55;98163.97;;;12.00;75.41
19447;BME280;9862;49.462;11.054;2023-04-26T09:22:32;98166.94;;;11.14;62.01
19447;BME280;9862;49.462;11.054;2023-04-26T09:25:02;98169.44;;;10.89;61.13
19447;BME280;9862;49.462;11.054;2023-04-26T09:27:33;98155.53;;;10.80;67.01
19447;BME280;9862;49.462;11.054;2023-04-26T09:30:03;98174.97;;;10.87;61.29
19447;BME280;9862;49.462;11.054;2023-04-26T09:32:51;98167.84;;;10.48;67.24
19447;BME280;9862;49.462;11.054;2023-04-26T09:35:26;98157.19;;;10.68;69.20
19447;BME280;9862;49.462;11.054;2023-04-26T09:37:54;98164.97;;;10.37;56.75
19447;BME280;9862;49.462;11.054;2023-04-26T09:40:25;98154.31;;;10.37;55.67
19447;BME280;9862;49.462;11.054;2023-04-26T09:42:59;98155.97;;;10.44;57.20
19447;BME280;9862;49.462;11.054;2023-04-26T09:45:27;98163.72;;;10.39;57.55
19447;BME280;9862;49.462;11.054;2023-04-26T09:47:54;98158.84;;;10.43;56.62
19447;BME280;9862;49.462;11.054;2023-04-26T09:50:26;98158.59;;;10.31;55.82
19447;BME280;9862;49.462;11.054;2023-04-26T09:52:52;98158.00;;;10.49;54.11
19447;BME280;9862;49.462;11.054;2023-04-26T09:55:27;98158.00;;;10.49;53.63
19447;BME280;9862;49.462;11.054;2023-04-26T09:57:54;98154.13;;;10.45;53.52
19447;BME280;9862;49.462;11.054;2023-04-26T10:00:21;98158.00;;;10.36;54.63
19447;BME280;9862;49.462;11.054;2023-04-26T10:02:49;98149.84;;;10.44;53.83
19447;BME280;9862;49.462;11.054;2023-04-26T10:05:16;98143.69;;;10.63;53.33
19447;BME280;9862;49.462;11.054;2023-04-26T10:07:43;98144.88;;;10.80;52.52
19447;BME280;9862;49.462;11.054;2023-04-26T10:10:11;98150.19;;;10.80;52.75
19447;BME280;9862;49.462;11.054;2023-04-26T10:12:39;98159.03;;;10.68;56.60
19447;BME280;9862;49.462;11.054;2023-04-26T10:15:09;98150.84;;;10.63;62.79
19447;BME280;9862;49.462;11.054;2023-04-26T10:17:36;98142.25;;;10.67;54.88
19447;BME280;9862;49.462;11.054;2023-04-26T10:20:07;98143.25;;;10.79;51.77
19447;BME280;9862;49.462;11.054;2023-04-26T10:22:39;98130.97;;;10.78;52.48
19447;BME280;9862;49.462;11.054;2023-04-26T10:25:08;98126.44;;;10.85;53.79
19447;BME280;9862;49.462;11.054;2023-04-26T10:27:52;98133.13;;;11.14;53.03
19447;BME280;9862;49.462;11.054;2023-04-26T10:30:20;98145.22;;;11.17;53.92
19447;BME280;9862;49.462;11.054;2023-04-26T10:33:15;98143.03;;;11.01;57.81
19447;BME280;9862;49.462;11.054;2023-04-26T10:36:02;98135.25;;;10.93;59.10
19447;BME280;9862;49.462;11.054;2023-04-26T10:38:29;98135.03;;;10.87;58.88
19447;BME280;9862;49.462;11.054;2023-04-26T10:41:26;98140.81;;;10.58;59.49
19447;BME280;9862;49.462;11.054;2023-04-26T10:43:55;98132.63;;;10.40;62.20
19447;BME280;9862;49.462;11.054;2023-04-26T10:46:35;98136.50;;;10.50;62.81
19447;BME280;9862;49.462;11.054;2023-04-26T10:49:15;98129.31;;;10.71;60.59
19447;BME280;9862;49.462;11.054;2023-04-26T10:52:07;98139.16;;;10.70;60.98
19447;BME280;9862;49.462;11.054;2023-04-26T10:54:54;98145.09;;;10.59;60.79
19447;BME280;9862;49.462;11.054;2023-04-26T10:57:23;98139.00;;;10.52;59.54
19447;BME280;9862;49.462;11.054;2023-04-26T11:03:04;98136.50;;;10.77;55.45
19447;BME280;9862;49.462;11.054;2023-04-26T11:05:53;98131.56;;;10.80;55.33
19447;BME280;9862;49.462;11.054;2023-04-26T11:08:23;98133.63;;;10.78;57.13
19447;BME280;9862;49.462;11.054;2023-04-26T11:10:56;98137.09;;;10.92;55.11
19447;BME280;9862;49.462;11.054;2023-04-26T11:13:23;98124.59;;;10.93;55.30
19447;BME280;9862;49.462;11.054;2023-04-26T11:15:53;98119.44;;;11.04;54.62
19447;BME280;9862;49.462;11.054;2023-04-26T11:18:21;98125.19;;;10.95;54.70
19447;BME280;9862;49.462;11.054;2023-04-26T11:20:48;98129.88;;;10.99;55.49
19447;BME280;9862;49.462;11.054;2023-04-26T11:23:17;98118.63;;;11.10;52.03
19447;BME280;9862;49.462;11.054;2023-04-26T11:25:43;98122.31;;;11.03;54.28
19447;BME280;9862;49.462;11.054;2023-04-26T11:28:10;98120.25;;;11.05;55.46
19447;BME280;9862;49.462;11.054;2023-04-26T11:30:37;98109.38;;;11.06;57.04
19447;BME280;9862;49.462;11.054;2023-04-26T11:33:03;98103.00;;;11.21;56.49
19447;BME280;9862;49.462;11.054;2023-04-26T11:35:33;98113.25;;;11.17;53.57
19447;BME280;9862;49.462;11.054;2023-04-26T11:38:03;98113.31;;;11.04;51.91
19447;BME280;9862;49.462;11.054;2023-04-26T11:40:31;98102.09;;;10.82;51.25
19447;BME280;9862;49.462;11.054;2023-04-26T11:43:01;98107.81;;;10.92;52.16
19447;BME280;9862;49.462;11.054;2023-04-26T11:45:30;98096.28;;;11.05;52.57
19447;BME280;9862;49.462;11.054;2023-04-26T11:47:57;98099.31;;;11.22;52.02
19447;BME280;9862;49.462;11.054;2023-04-26T11:50:24;98097.63;;;11.27;51.02
19447;BME280;9862;49.462;11.054;2023-04-26T11:52:58;98092.88;;;11.36;51.90
19447;BME280;9862;49.462;11.054;2023-04-26T11:55:26;98096.78;;;11.40;52.81
19447;BME280;9862;49.462;11.054;2023-04-26T11:57:53;98104.47;;;11.55;51.63
19447;BME280;9862;49.462;11.054;2023-04-26T12:00:20;98101.81;;;11.55;51.88
19447;BME280;9862;49.462;11.054;2023-04-26T12:02:47;98086.94;;;11.40;51.57
19447;BME280;9862;49.462;11.054;2023-04-26T12:05:22;98092.63;;;11.51;51.44
19447;BME280;9862;49.462;11.054;2023-04-26T12:07:49;98094.25;;;11.52;51.03
19447;BME280;9862;49.462;11.054;2023-04-26T12:10:20;98085.38;;;11.64;50.84
19447;BME280;9862;49.462;11.054;2023-04-26T12:12:47;98090.13;;;11.56;48.35
19447;BME280;9862;49.462;11.054;2023-04-26T12:15:14;98093.34;;;11.64;47.81
19447;BME280;9862;49.462;11.054;2023-04-26T12:17:51;98085.22;;;11.53;48.14
19447;BME280;9862;49.462;11.054;2023-04-26T12:20:18;98095.63;;;11.16;48.09
19447;BME280;9862;49.462;11.054;2023-04-26T12:22:56;98081.25;;;11.30;50.41
19447;BME280;9862;49.462;11.054;2023-04-26T12:25:24;98088.91;;;11.58;51.46
19447;BME280;9862;49.462;11.054;2023-04-26T12:27:51;98084.31;;;11.65;52.13
19447;BME280;9862;49.462;11.054;2023-04-26T12:30:18;98072.38;;;11.81;51.78
19447;BME280;9862;49.462;11.054;2023-04-26T12:32:44;98091.69;;;11.70;51.01
19447;BME280;9862;49.462;11.054;2023-04-26T12:35:11;98075.81;;;11.50;52.57
19447;BME280;9862;49.462;11.054;2023-04-26T12:37:37;98091.00;;;11.50;52.39
19447;BME280;9862;49.462;11.054;2023-04-26T12:40:05;98068.75;;;11.69;52.83
19447;BME280;9862;49.462;11.054;2023-04-26T12:42:34;98072.25;;;12.01;51.94
19447;BME280;9862;49.462;11.054;2023-04-26T12:45:01;98079.66;;;11.61;52.26
19447;BME280;9862;49.462;11.054;2023-04-26T12:47:29;98076.13;;;11.67;52.24
19447;BME280;9862;49.462;11.054;2023-04-26T12:49:55;98060.69;;;11.82;51.88
19447;BME280;9862;49.462;11.054;2023-04-26T12:52:23;98062.97;;;12.03;52.60
19447;BME280;9862;49.462;11.054;2023-04-26T12:54:50;98062.19;;;12.28;52.96
19447;BME280;9862;49.462;11.054;2023-04-26T12:57:16;98049.50;;;12.67;51.14
19447;BME280;9862;49.462;11.054;2023-04-26T12:59:44;98060.03;;;12.80;49.34
19447;BME280;9862;49.462;11.054;2023-04-26T13:02:11;98068.16;;;12.48;50.70
19447;BME280;9862;49.462;11.054;2023-04-26T13:04:38;98052.13;;;12.48;48.98
19447;BME280;9862;49.462;11.054;2023-04-26T13:07:05;98057.16;;;12.38;47.96
19447;BME280;9862;49.462;11.054;2023-04-26T13:09:32;98050.63;;;12.34;48.33
19447;BME280;9862;49.462;11.054;2023-04-26T13:11:58;98047.63;;;12.24;49.25
19447;BME280;9862;49.462;11.054;2023-04-26T13:14:25;98053.41;;;12.46;49.95
19447;BME280;9862;49.462;11.054;2023-04-26T13:16:53;98050.88;;;12.51;50.49
19447;BME280;9862;49.462;11.054;2023-04-26T13:19:20;98052.75;;;12.25;49.77
19447;BME280;9862;49.462;11.054;2023-04-26T13:21:47;98062.50;;;12.13;49.25
19447;BME280;9862;49.462;11.054;2023-04-26T13:24:13;98055.78;;;12.04;50.96
19447;BME280;9862;49.462;11.054;2023-04-26T13:26:40;98054.31;;;12.33;50.79
19447;BME280;9862;49.462;11.054;2023-04-26T13:29:06;98049.63;;;12.72;49.41
19447;BME280;9862;49.462;11.054;2023-04-26T13:31:33;98052.75;;;12.69;49.49
19447;BME280;9862;49.462;11.054;2023-04-26T13:34:02;98042.16;;;12.99;49.51
19447;BME280;9862;49.462;11.054;2023-04-26T13:36:29;98042.16;;;12.99;48.19
19447;BME280;9862;49.462;11.054;2023-04-26T13:38:56;98052.19;;;13.03;49.83
19447;BME280;9862;49.462;11.054;2023-04-26T13:41:23;98056.75;;;12.59;50.05
19447;BME280;9862;49.462;11.054;2023-04-26T13:43:50;98053.63;;;12.63;50.63
19447;BME280;9862;49.462;11.054;2023-04-26T13:46:16;98042.66;;;12.71;51.17
19447;BME280;9862;49.462;11.054;2023-04-26T13:48:43;98048.78;;;12.53;50.61
19447;BME280;9862;49.462;11.054;2023-04-26T13:51:11;98056.66;;;12.48;50.69
19447;BME280;9862;49.462;11.054;2023-04-26T13:53:37;98047.06;;;12.40;50.54
19447;BME280;9862;49.462;11.054;2023-04-26T13:56:05;98049.19;;;12.56;49.59
19447;BME280;9862;49.462;11.054;2023-04-26T13:58:33;98051.78;;;13.00;49.93
19447;BME280;9862;49.462;11.054;2023-04-26T14:01:01;98044.72;;;13.42;47.84
19447;BME280;9862;49.462;11.054;2023-04-26T14:03:27;98045.97;;;13.39;47.51
19447;BME280;9862;49.462;11.054;2023-04-26T14:05:54;98045.41;;;13.19;48.10
19447;BME280;9862;49.462;11.054;2023-04-26T14:08:22;98049.78;;;13.13;47.86
19447;BME280;9862;49.462;11.054;2023-04-26T14:10:49;98050.69;;;13.26;48.10
19447;BME280;9862;49.462;11.054;2023-04-26T14:13:15;98045.19;;;13.21;47.91
19447;BME280;9862;49.462;11.054;2023-04-26T14:15:42;98051.03;;;13.11;47.11
19447;BME280;9862;49.462;11.054;2023-04-26T14:18:08;98057.00;;;12.95;48.03
19447;BME280;9862;49.462;11.054;2023-04-26T14:20:35;98050.84;;;12.94;47.75
19447;BME280;9862;49.462;11.054;2023-04-26T14:23:02;98051.56;;;13.01;48.21
19447;BME280;9862;49.462;11.054;2023-04-26T14:25:29;98048.69;;;12.84;48.65
19447;BME280;9862;49.462;11.054;2023-04-26T14:27:56;98055.44;;;12.87;48.22
19447;BME280;9862;49.462;11.054;2023-04-26T14:30:23;98052.81;;;12.80;47.75
19447;BME280;9862;49.462;11.054;2023-04-26T14:32:50;98065.88;;;12.88;49.18
19447;BME280;9862;49.462;11.054;2023-04-26T14:35:16;98048.59;;;12.73;48.19
19447;BME280;9862;49.462;11.054;2023-04-26T14:37:43;98042.44;;;12.72;47.83
19447;BME280;9862;49.462;11.054;2023-04-26T14:40:10;98061.78;;;12.49;47.63
19447;BME280;9862;49.462;11.054;2023-04-26T14:42:39;98049.88;;;12.27;47.67
19447;BME280;9862;49.462;11.054;2023-04-26T14:45:10;98037.44;;;12.14;49.44
19447;BME280;9862;49.462;11.054;2023-04-26T14:47:36;98036.81;;;12.19;48.88
19447;BME280;9862;49.462;11.054;2023-04-26T14:50:03;98047.22;;;12.27;49.74
19447;BME280;9862;49.462;11.054;2023-04-26T14:52:32;98046.06;;;12.16;49.24
19447;BME280;9862;49.462;11.054;2023-04-26T14:55:00;98040.59;;;12.04;50.29
19447;BME280;9862;49.462;11.054;2023-04-26T14:57:26;98042.63;;;12.09;49.95
19447;BME280;9862;49.462;11.054;2023-04-26T14:59:54;98038.44;;;12.20;49.85
19447;BME280;9862;49.462;11.054;2023-04-26T15:02:22;98031.22;;;12.82;49.42
19447;BME280;9862;49.462;11.054;2023-04-26T15:04:48;98027.09;;;13.04;48.72
19447;BME280;9862;49.462;11.054;2023-04-26T15:07:15;98043.47;;;12.89;47.82
19447;BME280;9862;49.462;11.054;2023-04-26T15:09:42;98038.06;;;12.96;48.22
19447;BME280;9862;49.462;11.054;2023-04-26T15:12:09;98040.88;;;13.20;48.16
19447;BME280;9862;49.462;11.054;2023-04-26T15:14:35;98033.91;;;13.00;47.44
19447;BME280;9862;49.462;11.054;2023-04-26T15:17:03;98061.22;;;12.41;48.83
19447;BME280;9862;49.462;11.054;2023-04-26T15:19:30;98049.28;;;12.43;48.85
19447;BME280;9862;49.462;11.054;2023-04-26T15:21:56;98033.16;;;12.38;49.32
19447;BME280;9862;49.462;11.054;2023-04-26T15:24:23;98030.56;;;12.50;50.59
19447;BME280;9862;49.462;11.054;2023-04-26T15:26:50;98030.34;;;12.70;50.16
19447;BME280;9862;49.462;11.054;2023-04-26T15:29:17;98023.47;;;13.47;49.65
19447;BME280;9862;49.462;11.054;2023-04-26T15:31:43;98026.41;;;14.22;46.27
19447;BME280;9862;49.462;11.054;2023-04-26T15:34:11;98029.13;;;14.46;44.48
19447;BME280;9862;49.462;11.054;2023-04-26T15:36:38;98024.34;;;14.59;43.57
19447;BME280;9862;49.462;11.054;2023-04-26T15:39:05;98017.72;;;15.14;44.16
19447;BME280;9862;49.462;11.054;2023-04-26T15:41:32;98018.06;;;15.74;42.43
19447;BME280;9862;49.462;11.054;2023-04-26T15:43:59;98014.66;;;15.51;41.25
19447;BME280;9862;49.462;11.054;2023-04-26T15:46:25;98021.72;;;15.00;42.33
19447;BME280;9862;49.462;11.054;2023-04-26T15:48:52;98028.69;;;14.49;42.21
19447;BME280;9862;49.462;11.054;2023-04-26T15:51:20;98024.44;;;14.41;43.14
19447;BME280;9862;49.462;11.054;2023-04-26T15:53:48;98036.31;;;14.22;42.45
19447;BME280;9862;49.462;11.054;2023-04-26T15:56:15;98020.53;;;13.79;43.28
19447;BME280;9862;49.462;11.054;2023-04-26T15:58:42;98027.38;;;13.63;43.55
19447;BME280;9862;49.462;11.054;2023-04-26T16:01:09;98026.06;;;13.24;44.39
19447;BME280;9862;49.462;11.054;2023-04-26T16:03:36;98022.78;;;13.03;45.31
19447;BME280;9862;49.462;11.054;2023-04-26T16:06:03;98026.34;;;12.79;45.84
19447;BME280;9862;49.462;11.054;2023-04-26T16:08:32;98023.97;;;13.07;46.27
19447;BME280;9862;49.462;11.054;2023-04-26T16:10:59;98025.34;;;13.58;44.29
19447;BME280;9862;49.462;11.054;2023-04-26T16:13:26;98012.78;;;14.36;43.14
19447;BME280;9862;49.462;11.054;2023-04-26T16:15:52;98008.94;;;14.90;41.46
19447;BME280;9862;49.462;11.054;2023-04-26T16:18:19;98017.44;;;14.75;41.03
19447;BME280;9862;49.462;11.054;2023-04-26T16:20:46;98029.91;;;14.35;41.89
19447;BME280;9862;49.462;11.054;2023-04-26T16:23:12;98023.38;;;14.07;42.11
19447;BME280;9862;49.462;11.054;2023-04-26T16:25:41;98021.66;;;14.24;41.95
19447;BME280;9862;49.462;11.054;2023-04-26T16:28:08;98016.88;;;14.03;42.69
19447;BME280;9862;49.462;11.054;2023-04-26T16:30:34;98019.31;;;14.28;42.20
19447;BME280;9862;49.462;11.054;2023-04-26T16:33:02;98022.28;;;14.50;42.84
19447;BME280;9862;49.462;11.054;2023-04-26T16:35:34;98015.75;;;14.57;42.09
19447;BME280;9862;49.462;11.054;2023-04-26T16:38:00;98012.72;;;14.54;42.80
19447;BME280;9862;49.462;11.054;2023-04-26T16:40:27;97999.06;;;14.55;42.74
19447;BME280;9862;49.462;11.054;2023-04-26T16:42:55;97997.00;;;14.46;43.32
19447;BME280;9862;49.462;11.054;2023-04-26T16:45:22;98013.72;;;14.18;43.16
19447;BME280;9862;49.462;11.054;2023-04-26T16:47:48;98018.25;;;13.94;43.80
19447;BME280;9862;49.462;11.054;2023-04-26T16:50:15;98006.31;;;13.66;44.10
19447;BME280;9862;49.462;11.054;2023-04-26T16:52:41;98020.66;;;13.42;44.24
19447;BME280;9862;49.462;11.054;2023-04-26T16:55:09;98022.47;;;12.93;45.53
19447;BME280;9862;49.462;11.054;2023-04-26T16:57:35;98021.75;;;12.49;46.43
19447;BME280;9862;49.462;11.054;2023-04-26T17:00:04;98018.63;;;12.71;45.72
19447;BME280;9862;49.462;11.054;2023-04-26T17:02:34;98015.06;;;12.58;46.61
19447;BME280;9862;49.462;11.054;2023-04-26T17:05:01;98020.88;;;12.55;47.02
19447;BME280;9862;49.462;11.054;2023-04-26T17:07:27;98023.06;;;12.40;46.58
19447;BME280;9862;49.462;11.054;2023-04-26T17:09:54;98020.22;;;12.35;47.36
19447;BME280;9862;49.462;11.054;2023-04-26T17:12:20;98021.75;;;12.49;46.67
19447;BME280;9862;49.462;11.054;2023-04-26T17:14:47;98029.06;;;12.54;46.32
19447;BME280;9862;49.462;11.054;2023-04-26T17:17:15;98016.41;;;12.68;47.81
19447;BME280;9862;49.462;11.054;2023-04-26T17:19:41;98013.50;;;12.87;46.36
19447;BME280;9862;49.462;11.054;2023-04-26T17:22:08;98021.75;;;13.04;45.12
19447;BME280;9862;49.462;11.054;2023-04-26T17:24:35;98016.41;;;13.23;45.66
19447;BME280;9862;49.462;11.054;2023-04-26T17:27:02;98020.84;;;13.29;45.07
19447;BME280;9862;49.462;11.054;2023-04-26T17:29:29;98034.00;;;12.94;45.35
19447;BME280;9862;49.462;11.054;2023-04-26T17:31:56;98023.59;;;12.67;45.68
19447;BME280;9862;49.462;11.054;2023-04-26T17:34:24;98029.00;;;12.60;47.26
19447;BME280;9862;49.462;11.054;2023-04-26T17:36:50;98033.91;;;12.64;48.25
19447;BME280;9862;49.462;11.054;2023-04-26T17:39:17;98034.59;;;12.77;47.77
19447;BME280;9862;49.462;11.054;2023-04-26T17:41:44;98033.59;;;12.72;46.75
19447;BME280;9862;49.462;11.054;2023-04-26T17:44:10;98038.00;;;12.66;45.86